RJFN(METAR)
10/16 18:00
METAR RJFN 160900Z 02003KT 350V050 9999 FEW030 BKN035 20/14 Q1021
RMK 1CU030 7SC035 A3017=
戻る
トップページへ戻る
IMOC Co,.Ltd.